createdAt,value
2022-12-05T00:03:26.212Z,94961.28
2022-12-05T00:07:08.935Z,94982.84
2022-12-05T00:10:54.165Z,94991.75
2022-12-05T00:14:37.160Z,94977.00
2022-12-05T00:18:21.497Z,94987.69
2022-12-05T00:22:04.478Z,94983.81
2022-12-05T00:25:47.237Z,95000.34
2022-12-05T00:29:30.053Z,95005.34
2022-12-05T00:33:13.013Z,95000.00
2022-12-05T00:36:57.366Z,95004.56
2022-12-05T00:40:40.230Z,94989.50
2022-12-05T00:44:23.020Z,95000.69
2022-12-05T00:48:06.644Z,95005.22
2022-12-05T00:51:49.412Z,95009.75
2022-12-05T00:55:33.743Z,95003.25
2022-12-05T00:59:20.940Z,95012.66
2022-12-05T01:03:03.866Z,95005.38
2022-12-05T01:06:46.960Z,95018.38
2022-12-05T01:10:29.819Z,95022.41
2022-12-05T01:14:15.970Z,95034.41
2022-12-05T01:17:59.031Z,95046.72
2022-12-05T01:21:57.074Z,95065.53
2022-12-05T01:25:41.336Z,95067.47
2022-12-05T01:29:28.792Z,95067.13
2022-12-05T01:33:11.948Z,95054.72
2022-12-05T01:37:01.411Z,95049.84
2022-12-05T01:40:47.137Z,95048.19
2022-12-05T01:45:04.023Z,95061.50
2022-12-05T01:48:47.033Z,95069.25
2022-12-05T01:52:31.353Z,95088.06
2022-12-05T01:56:14.743Z,95082.06
2022-12-05T02:00:01.921Z,95084.81
2022-12-05T02:03:47.978Z,95102.00
2022-12-05T02:07:31.289Z,95098.44
2022-12-05T02:11:14.484Z,95120.84
2022-12-05T02:15:21.894Z,95147.34
2022-12-05T02:19:31.598Z,95132.91
2022-12-05T02:23:27.455Z,95131.59
2022-12-05T02:27:22.679Z,95137.88
2022-12-05T02:31:09.939Z,95134.13
2022-12-05T02:34:59.618Z,95138.00
2022-12-05T02:38:46.543Z,95146.88
2022-12-05T02:42:33.707Z,95145.91
2022-12-05T02:46:19.094Z,95153.63
2022-12-05T02:50:02.557Z,95156.88
2022-12-05T02:53:47.032Z,95159.94
2022-12-05T02:57:30.092Z,95170.22
2022-12-05T03:01:13.536Z,95177.31
2022-12-05T03:04:59.910Z,95173.63
2022-12-05T03:08:46.158Z,95175.09
2022-12-05T03:12:31.997Z,95185.31
2022-12-05T03:16:17.919Z,95195.69
2022-12-05T03:20:06.626Z,95202.44
2022-12-05T03:23:52.763Z,95208.56
2022-12-05T03:27:41.366Z,95218.19
2022-12-05T03:31:32.475Z,95212.19
2022-12-05T03:35:22.013Z,95228.09
2022-12-05T03:39:08.734Z,95226.78
2022-12-05T03:42:56.182Z,95233.38
2022-12-05T03:46:41.481Z,95223.00
2022-12-05T03:50:28.861Z,95236.63
2022-12-05T03:54:15.749Z,95240.97
2022-12-05T03:58:00.986Z,95245.56
2022-12-05T04:01:44.858Z,95224.19
2022-12-05T04:05:32.187Z,95233.88
2022-12-05T04:09:18.498Z,95241.06
2022-12-05T04:13:17.656Z,95241.28
2022-12-05T04:17:04.787Z,95244.16
2022-12-05T04:21:06.994Z,95258.97
2022-12-05T04:25:08.163Z,95247.94
2022-12-05T04:28:54.390Z,95265.41
2022-12-05T04:32:41.642Z,95260.59
2022-12-05T04:36:28.360Z,95261.97
2022-12-05T04:40:15.174Z,95260.72
2022-12-05T04:44:01.203Z,95254.88
2022-12-05T04:47:46.316Z,95256.50
2022-12-05T04:51:35.321Z,95252.63
2022-12-05T04:55:25.787Z,95238.72
2022-12-05T04:59:08.699Z,95231.91
2022-12-05T05:02:56.183Z,95227.13
2022-12-05T05:06:40.809Z,95217.72
2022-12-05T05:10:28.284Z,95214.31
2022-12-05T05:14:11.152Z,95217.88
2022-12-05T05:17:53.845Z,95232.63
2022-12-05T05:21:38.659Z,95234.78
2022-12-05T05:25:23.731Z,95238.56
2022-12-05T05:29:06.759Z,95241.19
2022-12-05T05:32:51.600Z,95256.44
2022-12-05T05:36:39.457Z,95254.53
2022-12-05T05:40:23.671Z,95249.22
2022-12-05T05:44:06.812Z,95254.91
2022-12-05T05:47:52.338Z,95251.56
2022-12-05T05:51:35.323Z,95253.06
2022-12-05T05:55:18.427Z,95253.41
2022-12-05T05:59:04.609Z,95256.69
2022-12-05T06:02:47.541Z,95262.81
2022-12-05T06:06:30.384Z,95276.34
2022-12-05T06:10:13.239Z,95281.69
2022-12-05T06:13:56.622Z,95295.00
2022-12-05T06:17:40.746Z,95297.13
2022-12-05T06:21:24.007Z,95293.28
2022-12-05T06:25:07.859Z,95297.66
2022-12-05T06:28:50.690Z,95297.34
2022-12-05T06:32:41.154Z,95294.44
2022-12-05T06:36:25.378Z,95299.97
2022-12-05T06:40:12.198Z,95296.41
2022-12-05T06:44:01.360Z,95302.41
2022-12-05T06:47:44.966Z,95307.78
2022-12-05T06:51:29.149Z,95317.88
2022-12-05T06:55:12.023Z,95319.19
2022-12-05T06:58:55.639Z,95324.38
2022-12-05T07:02:38.466Z,95328.28
2022-12-05T07:06:21.268Z,95330.25
2022-12-05T07:10:06.692Z,95321.50
2022-12-05T07:13:51.945Z,95333.53
2022-12-05T07:17:39.178Z,95331.28
2022-12-05T07:21:23.437Z,95330.47
2022-12-05T07:25:08.540Z,95341.69
2022-12-05T07:28:52.163Z,95340.41
2022-12-05T07:32:35.575Z,95340.75
2022-12-05T07:36:24.146Z,95345.63
2022-12-05T07:40:09.650Z,95345.63
2022-12-05T07:43:52.682Z,95358.97
2022-12-05T07:47:37.937Z,95360.28
2022-12-05T07:51:21.767Z,95362.25
2022-12-05T07:55:04.820Z,95370.69
2022-12-05T07:58:51.931Z,95383.06
2022-12-05T08:02:38.885Z,95375.59
2022-12-05T08:06:24.568Z,95367.16
2022-12-05T08:10:08.850Z,95371.06
2022-12-05T08:13:53.101Z,95369.78
2022-12-05T08:17:35.845Z,95378.56
2022-12-05T08:21:20.483Z,95377.59
2022-12-05T08:25:06.617Z,95394.53
2022-12-05T08:28:54.278Z,95391.13
2022-12-05T08:32:37.172Z,95397.81
2022-12-05T08:36:20.608Z,95404.00
2022-12-05T08:40:13.644Z,95403.38
2022-12-05T08:44:03.009Z,95405.97
2022-12-05T08:47:45.926Z,95413.78
2022-12-05T08:51:28.729Z,95415.09
2022-12-05T08:55:20.854Z,95417.53
2022-12-05T08:59:06.192Z,95420.97
2022-12-05T09:02:51.794Z,95422.59
2022-12-05T09:06:35.710Z,95414.78
2022-12-05T09:10:27.529Z,95412.34
2022-12-05T09:14:12.137Z,95437.25
2022-12-05T09:17:54.892Z,95426.84
2022-12-05T09:21:37.713Z,95437.25
2022-12-05T09:25:33.450Z,95427.94
2022-12-05T09:29:18.273Z,95440.81
2022-12-05T09:33:01.223Z,95440.97
2022-12-05T09:36:44.103Z,95449.59
2022-12-05T09:40:58.962Z,95451.53
2022-12-05T09:45:02.810Z,95457.06
2022-12-05T09:48:47.497Z,95453.81
2022-12-05T09:52:32.214Z,95454.63
2022-12-05T09:56:23.844Z,95470.22
2022-12-05T10:00:13.360Z,95460.31
2022-12-05T10:04:08.805Z,95459.66
2022-12-05T10:07:57.213Z,95457.56
2022-12-05T10:11:43.278Z,95455.75
2022-12-05T10:15:32.865Z,95460.31
2022-12-05T10:19:19.427Z,95456.75
2022-12-05T10:23:05.446Z,95454.34
2022-12-05T10:26:55.338Z,95447.34
2022-12-05T10:30:42.163Z,95448.66
2022-12-05T10:34:34.921Z,95439.88
2022-12-05T10:38:24.425Z,95449.31
2022-12-05T10:42:08.579Z,95445.72
2022-12-05T10:45:52.801Z,95440.34
2022-12-05T10:49:36.153Z,95445.41
2022-12-05T10:53:21.232Z,95430.09
2022-12-05T10:57:22.677Z,95428.81
2022-12-05T11:01:14.685Z,95440.84
2022-12-05T11:04:59.446Z,95440.69
2022-12-05T11:09:03.764Z,95430.44
2022-12-05T11:12:46.073Z,95434.03
2022-12-05T11:16:33.179Z,95426.53
2022-12-05T11:20:38.412Z,95420.66
2022-12-05T11:24:27.894Z,95433.00
2022-12-05T11:28:31.264Z,95423.72
2022-12-05T11:32:21.180Z,95436.41
2022-12-05T11:36:13.127Z,95422.25
2022-12-05T11:39:58.531Z,95427.94
2022-12-05T11:43:57.592Z,95423.53
2022-12-05T11:47:54.613Z,95423.16
2022-12-05T11:51:40.433Z,95421.53
2022-12-05T11:55:26.223Z,95421.34
2022-12-05T11:59:27.416Z,95416.59
2022-12-05T12:03:45.632Z,95414.31
2022-12-05T12:07:59.398Z,95423.75
2022-12-05T12:11:46.403Z,95429.94
2022-12-05T12:15:43.634Z,95435.06
2022-12-05T12:19:36.625Z,95423.16
2022-12-05T12:23:36.447Z,95424.81
2022-12-05T12:27:30.608Z,95418.25
2022-12-05T12:31:32.971Z,95437.22
2022-12-05T12:35:31.934Z,95413.78
2022-12-05T12:39:24.950Z,95410.03
2022-12-05T12:43:44.777Z,95412.16
2022-12-05T12:47:24.980Z,95404.63
2022-12-05T12:51:12.969Z,95401.72
2022-12-05T12:55:17.854Z,95419.31
2022-12-05T12:59:06.950Z,95412.97
2022-12-05T13:02:52.905Z,95399.13
2022-12-05T13:06:39.238Z,95401.91
2022-12-05T13:10:27.639Z,95424.56
2022-12-05T13:14:13.521Z,95409.41
2022-12-05T13:17:56.441Z,95414.47
2022-12-05T13:21:39.420Z,95402.13
2022-12-05T13:25:36.061Z,95402.44
2022-12-05T13:29:22.689Z,95408.28
2022-12-05T13:33:08.269Z,95403.09
2022-12-05T13:37:08.563Z,95413.84
2022-12-05T13:41:11.680Z,95415.78
2022-12-05T13:44:56.958Z,95414.81
2022-12-05T13:48:42.521Z,95412.88
2022-12-05T13:52:27.817Z,95401.47
2022-12-05T13:56:27.978Z,95409.94
2022-12-05T14:00:29.092Z,95413.50
2022-12-05T14:05:09.907Z,95423.28
2022-12-05T14:08:55.220Z,95416.72
2022-12-05T14:12:57.615Z,95418.22
2022-12-05T14:16:45.461Z,95405.38
2022-12-05T14:20:33.988Z,95419.03
2022-12-05T14:24:21.005Z,95420.66
2022-12-05T14:28:20.719Z,95429.13
2022-12-05T14:32:12.717Z,95430.75
2022-12-05T14:36:06.329Z,95437.09
2022-12-05T14:39:52.140Z,95432.22
2022-12-05T14:43:36.461Z,95440.50
2022-12-05T14:47:23.263Z,95445.72
2022-12-05T14:51:47.817Z,95444.09
2022-12-05T14:55:32.005Z,95433.97
2022-12-05T14:59:24.367Z,95427.78
2022-12-05T15:03:12.055Z,95419.03
2022-12-05T15:06:57.046Z,95407.94
2022-12-05T15:10:41.274Z,95417.53
2022-12-05T15:14:31.087Z,95419.31
2022-12-05T15:18:20.203Z,95424.53
2022-12-05T15:22:07.712Z,95436.56
2022-12-05T15:25:57.298Z,95430.06
2022-12-05T15:29:45.070Z,95429.25
2022-12-05T15:33:30.231Z,95420.31
2022-12-05T15:37:15.629Z,95436.25
2022-12-05T15:40:59.983Z,95441.44
2022-12-05T15:44:45.710Z,95446.63
2022-12-05T15:48:31.417Z,95445.31
2022-12-05T15:52:26.550Z,95456.53
2022-12-05T15:56:15.185Z,95448.09
2022-12-05T16:00:05.920Z,95455.41
2022-12-05T16:03:54.176Z,95451.16
2022-12-05T16:07:37.120Z,95451.31
2022-12-05T16:11:21.631Z,95453.44
2022-12-05T16:15:07.169Z,95446.63
2022-12-05T16:18:51.264Z,95458.97
2022-12-05T16:22:34.464Z,95465.13
2022-12-05T16:26:22.300Z,95464.47
2022-12-05T16:30:10.971Z,95471.97
2022-12-05T16:34:01.824Z,95469.03
2022-12-05T16:37:44.551Z,95456.22
2022-12-05T16:41:35.882Z,95456.72
2022-12-05T16:45:39.639Z,95450.88
2022-12-05T16:49:46.380Z,95445.66
2022-12-05T16:53:32.531Z,95456.38
2022-12-05T16:57:17.602Z,95455.41
2022-12-05T17:01:02.654Z,95464.50
2022-12-05T17:04:46.848Z,95474.91
2022-12-05T17:08:29.770Z,95478.66
2022-12-05T17:12:19.283Z,95489.56
2022-12-05T17:16:04.953Z,95492.50
2022-12-05T17:19:50.145Z,95500.97
2022-12-05T17:23:32.874Z,95494.41
2022-12-05T17:27:19.721Z,95490.50
2022-12-05T17:31:02.506Z,95492.13
2022-12-05T17:34:45.526Z,95495.38
2022-12-05T17:38:28.274Z,95499.88
2022-12-05T17:42:10.985Z,95492.41
2022-12-05T17:45:55.664Z,95492.72
2022-12-05T17:49:38.412Z,95491.06
2022-12-05T17:53:22.075Z,95496.59
2022-12-05T17:57:04.807Z,95502.09
2022-12-05T18:00:50.368Z,95505.66
2022-12-05T18:04:34.458Z,95503.34
2022-12-05T18:08:17.997Z,95501.38
2022-12-05T18:12:00.888Z,95509.31
2022-12-05T18:15:46.807Z,95519.53
2022-12-05T18:19:29.586Z,95508.13
2022-12-05T18:23:13.872Z,95500.63
2022-12-05T18:26:58.094Z,95490.50
2022-12-05T18:30:41.612Z,95496.31
2022-12-05T18:34:25.785Z,95491.44
2022-12-05T18:38:08.887Z,95497.59
2022-12-05T18:41:52.985Z,95485.72
2022-12-05T18:45:36.084Z,95488.78
2022-12-05T18:49:18.883Z,95490.41
2022-12-05T18:53:04.096Z,95492.63
2022-12-05T18:56:50.224Z,95494.25
2022-12-05T19:00:36.216Z,95485.38
2022-12-05T19:04:22.347Z,95489.84
2022-12-05T19:08:05.848Z,95506.03
2022-12-05T19:11:51.446Z,95501.50
2022-12-05T19:15:37.193Z,95511.06
2022-12-05T19:19:21.469Z,95524.22
2022-12-05T19:23:04.268Z,95516.72
2022-12-05T19:26:48.039Z,95514.78
2022-12-05T19:30:30.760Z,95513.16
2022-12-05T19:34:15.283Z,95507.66
2022-12-05T19:37:58.134Z,95507.06
2022-12-05T19:41:40.970Z,95504.91
2022-12-05T19:45:27.302Z,95509.00
2022-12-05T19:49:12.669Z,95511.28
2022-12-05T19:52:56.869Z,95511.66
2022-12-05T19:56:40.446Z,95513.28
2022-12-05T20:00:23.411Z,95507.13
2022-12-05T20:04:08.527Z,95507.63
2022-12-05T20:07:53.280Z,95508.09
2022-12-05T20:11:39.613Z,95501.56
2022-12-05T20:15:22.589Z,95505.13
2022-12-05T20:19:05.642Z,95489.25
2022-12-05T20:22:48.349Z,95479.97
2022-12-05T20:26:32.719Z,95489.25
2022-12-05T20:30:16.970Z,95487.25
2022-12-05T20:33:59.808Z,95487.19
2022-12-05T20:37:55.369Z,95482.31
2022-12-05T20:41:38.119Z,95486.47
2022-12-05T20:45:22.260Z,95484.84
2022-12-05T20:49:05.101Z,95480.47
2022-12-05T20:52:58.269Z,95472.00
2022-12-05T20:56:41.799Z,95470.53
2022-12-05T21:00:25.935Z,95476.03
2022-12-05T21:04:09.242Z,95480.81
2022-12-05T21:08:03.069Z,95473.72
2022-12-05T21:11:45.996Z,95454.91
2022-12-05T21:15:30.055Z,95464.91
2022-12-05T21:19:12.816Z,95471.16
2022-12-05T21:23:13.961Z,95483.03
2022-12-05T21:26:57.339Z,95480.69
2022-12-05T21:30:41.533Z,95487.16
2022-12-05T21:34:24.286Z,95482.94
2022-12-05T21:38:14.697Z,95480.13
2022-12-05T21:41:58.240Z,95481.91
2022-12-05T21:45:44.982Z,95479.78
2022-12-05T21:49:29.593Z,95491.28
2022-12-05T21:57:33.472Z,95493.06
2022-12-05T22:01:27.162Z,95495.94
2022-12-05T22:05:10.792Z,95495.66
2022-12-05T22:08:55.304Z,95504.72
2022-12-05T22:12:38.340Z,95495.28
2022-12-05T22:16:32.339Z,95497.06
2022-12-05T22:20:18.211Z,95486.69
2022-12-05T22:24:04.886Z,95496.25
2022-12-05T22:27:47.637Z,95492.19
2022-12-05T22:31:34.474Z,95500.13
2022-12-05T22:35:17.944Z,95493.00
2022-12-05T22:39:05.933Z,95494.63
2022-12-05T22:42:48.716Z,95488.31
2022-12-05T22:46:32.822Z,95490.75
2022-12-05T22:50:18.229Z,95487.72
2022-12-05T22:54:03.382Z,95494.38
2022-12-05T22:57:46.282Z,95489.69
2022-12-05T23:01:34.777Z,95498.97
2022-12-05T23:05:19.202Z,95498.81
2022-12-05T23:09:05.335Z,95495.25
2022-12-05T23:12:48.131Z,95492.22
2022-12-05T23:16:32.667Z,95487.69
2022-12-05T23:20:21.317Z,95485.75
2022-12-05T23:24:09.097Z,95486.72
2022-12-05T23:27:51.867Z,95480.41
2022-12-05T23:31:36.564Z,95478.63
2022-12-05T23:35:22.616Z,95485.28
2022-12-05T23:39:19.979Z,95469.34
2022-12-05T23:43:02.774Z,95474.84
2022-12-05T23:46:49.214Z,95473.22
2022-12-05T23:50:36.541Z,95469.50
2022-12-05T23:54:20.725Z,95463.50
2022-12-05T23:58:03.664Z,95466.09
